Terminal Aerodrome Forecast
Issued by NWS Newport/Morehead City, NC

Home | Current Version | Previous Version | Text Only | Print | Product List | Glossary Off
Versions: 1 2 3 4 5 6 7 8 9 10 11 12 13 14 15 16 17 18 19 20 21 22

000
FTUS42 KMHX 142300
TAFEWN
TAF
KEWN 142320Z 1500/1524 07004KT P6SM OVC030
     FM150800 04003KT 4SM BR OVC020
      TEMPO 1508/1512 1SM BR
     FM151300 05005KT P6SM BKN020
     FM151700 04005KT P6SM BKN030=

USA.gov is the U.S. government's official web portal to all federal, state and local government web resources and services.